sensor_id;sensor_type;location;lat;lon;timestamp;P1;durP1;ratioP1;P2;durP2;ratioP2
48993;SDS011;34804;49.214;12.276;2023-04-01T00:00:32;3.60;;;0.90;;
48993;SDS011;34804;49.214;12.276;2023-04-01T00:02:59;5.15;;;0.93;;
48993;SDS011;34804;49.214;12.276;2023-04-01T00:05:27;5.97;;;1.05;;
48993;SDS011;34804;49.214;12.276;2023-04-01T00:07:54;5.50;;;1.08;;
48993;SDS011;34804;49.214;12.276;2023-04-01T00:10:21;5.85;;;0.85;;
48993;SDS011;34804;49.214;12.276;2023-04-01T00:12:48;5.75;;;1.00;;
48993;SDS011;34804;49.214;12.276;2023-04-01T00:15:14;6.80;;;1.40;;
48993;SDS011;34804;49.214;12.276;2023-04-01T00:17:41;6.55;;;1.02;;
48993;SDS011;34804;49.214;12.276;2023-04-01T00:20:08;3.47;;;1.00;;
48993;SDS011;34804;49.214;12.276;2023-04-01T00:22:36;5.85;;;0.90;;
48993;SDS011;34804;49.214;12.276;2023-04-01T00:25:03;8.65;;;1.27;;
48993;SDS011;34804;49.214;12.276;2023-04-01T00:27:30;4.05;;;0.88;;
48993;SDS011;34804;49.214;12.276;2023-04-01T00:29:57;5.03;;;0.90;;
48993;SDS011;34804;49.214;12.276;2023-04-01T00:32:24;2.95;;;0.70;;
48993;SDS011;34804;49.214;12.276;2023-04-01T00:34:52;5.05;;;1.10;;
48993;SDS011;34804;49.214;12.276;2023-04-01T00:37:19;7.07;;;0.90;;
48993;SDS011;34804;49.214;12.276;2023-04-01T00:39:47;4.32;;;1.02;;
48993;SDS011;34804;49.214;12.276;2023-04-01T00:42:14;4.47;;;0.95;;
48993;SDS011;34804;49.214;12.276;2023-04-01T00:44:41;2.47;;;0.70;;
48993;SDS011;34804;49.214;12.276;2023-04-01T00:47:08;4.28;;;0.95;;
48993;SDS011;34804;49.214;12.276;2023-04-01T00:49:36;3.80;;;0.70;;
48993;SDS011;34804;49.214;12.276;2023-04-01T00:52:07;2.92;;;0.80;;
48993;SDS011;34804;49.214;12.276;2023-04-01T00:54:37;5.32;;;0.75;;
48993;SDS011;34804;49.214;12.276;2023-04-01T00:57:07;5.57;;;1.10;;
48993;SDS011;34804;49.214;12.276;2023-04-01T00:59:46;3.28;;;0.90;;
48993;SDS011;34804;49.214;12.276;2023-04-01T01:02:16;2.85;;;0.80;;
48993;SDS011;34804;49.214;12.276;2023-04-01T01:04:43;4.55;;;0.90;;
48993;SDS011;34804;49.214;12.276;2023-04-01T01:10:08;3.25;;;0.90;;
48993;SDS011;34804;49.214;12.276;2023-04-01T01:15:46;4.68;;;0.70;;
48993;SDS011;34804;49.214;12.276;2023-04-01T01:18:19;5.05;;;1.40;;
48993;SDS011;34804;49.214;12.276;2023-04-01T01:21:04;4.93;;;2.10;;
48993;SDS011;34804;49.214;12.276;2023-04-01T01:23:54;2.67;;;0.65;;
48993;SDS011;34804;49.214;12.276;2023-04-01T01:37:43;3.90;;;1.00;;
48993;SDS011;34804;49.214;12.276;2023-04-01T01:40:13;3.70;;;0.80;;
48993;SDS011;34804;49.214;12.276;2023-04-01T01:42:43;4.85;;;0.80;;
48993;SDS011;34804;49.214;12.276;2023-04-01T01:45:15;1.48;;;0.60;;
48993;SDS011;34804;49.214;12.276;2023-04-01T01:47:44;3.58;;;0.93;;
48993;SDS011;34804;49.214;12.276;2023-04-01T01:50:16;2.80;;;0.57;;
48993;SDS011;34804;49.214;12.276;2023-04-01T01:52:44;2.80;;;0.65;;
48993;SDS011;34804;49.214;12.276;2023-04-01T01:57:58;4.15;;;0.70;;
48993;SDS011;34804;49.214;12.276;2023-04-01T02:00:30;2.38;;;0.50;;
48993;SDS011;34804;49.214;12.276;2023-04-01T02:02:57;4.63;;;0.75;;
48993;SDS011;34804;49.214;12.276;2023-04-01T02:05:25;3.35;;;0.90;;
48993;SDS011;34804;49.214;12.276;2023-04-01T02:07:57;2.88;;;0.65;;
48993;SDS011;34804;49.214;12.276;2023-04-01T02:10:30;1.83;;;0.73;;
48993;SDS011;34804;49.214;12.276;2023-04-01T02:13:00;1.55;;;0.50;;
48993;SDS011;34804;49.214;12.276;2023-04-01T02:15:34;1.50;;;0.45;;
48993;SDS011;34804;49.214;12.276;2023-04-01T02:18:07;4.40;;;1.10;;
48993;SDS011;34804;49.214;12.276;2023-04-01T02:20:34;3.15;;;0.50;;
48993;SDS011;34804;49.214;12.276;2023-04-01T02:23:02;2.60;;;0.68;;
48993;SDS011;34804;49.214;12.276;2023-04-01T02:25:33;4.28;;;0.63;;
48993;SDS011;34804;49.214;12.276;2023-04-01T02:28:05;3.83;;;0.57;;
48993;SDS011;34804;49.214;12.276;2023-04-01T02:30:34;4.57;;;0.65;;
48993;SDS011;34804;49.214;12.276;2023-04-01T02:33:03;1.98;;;0.63;;
48993;SDS011;34804;49.214;12.276;2023-04-01T02:35:32;2.50;;;0.57;;
48993;SDS011;34804;49.214;12.276;2023-04-01T02:38:01;1.33;;;0.50;;
48993;SDS011;34804;49.214;12.276;2023-04-01T02:40:29;2.10;;;0.50;;
48993;SDS011;34804;49.214;12.276;2023-04-01T02:42:55;1.50;;;0.50;;
48993;SDS011;34804;49.214;12.276;2023-04-01T02:45:22;1.95;;;0.50;;
48993;SDS011;34804;49.214;12.276;2023-04-01T02:47:49;2.20;;;0.77;;
48993;SDS011;34804;49.214;12.276;2023-04-01T02:50:16;1.15;;;0.50;;
48993;SDS011;34804;49.214;12.276;2023-04-01T02:52:43;3.08;;;0.60;;
48993;SDS011;34804;49.214;12.276;2023-04-01T02:55:10;4.13;;;0.77;;
48993;SDS011;34804;49.214;12.276;2023-04-01T02:57:37;1.55;;;0.60;;
48993;SDS011;34804;49.214;12.276;2023-04-01T03:00:04;1.27;;;0.63;;
48993;SDS011;34804;49.214;12.276;2023-04-01T03:02:38;3.90;;;0.70;;
48993;SDS011;34804;49.214;12.276;2023-04-01T03:05:05;4.45;;;0.65;;
48993;SDS011;34804;49.214;12.276;2023-04-01T03:07:33;4.07;;;0.60;;
48993;SDS011;34804;49.214;12.276;2023-04-01T03:10:00;3.65;;;0.68;;
48993;SDS011;34804;49.214;12.276;2023-04-01T03:12:27;2.63;;;0.52;;
48993;SDS011;34804;49.214;12.276;2023-04-01T03:14:54;6.72;;;0.77;;
48993;SDS011;34804;49.214;12.276;2023-04-01T03:17:21;5.78;;;0.85;;
48993;SDS011;34804;49.214;12.276;2023-04-01T03:19:47;3.85;;;0.60;;
48993;SDS011;34804;49.214;12.276;2023-04-01T03:22:14;5.65;;;0.50;;
48993;SDS011;34804;49.214;12.276;2023-04-01T03:24:41;4.22;;;0.73;;
48993;SDS011;34804;49.214;12.276;2023-04-01T03:27:08;1.42;;;0.47;;
48993;SDS011;34804;49.214;12.276;2023-04-01T03:29:35;3.85;;;0.52;;
48993;SDS011;34804;49.214;12.276;2023-04-01T03:32:01;3.10;;;0.63;;
48993;SDS011;34804;49.214;12.276;2023-04-01T03:34:28;5.22;;;0.70;;
48993;SDS011;34804;49.214;12.276;2023-04-01T03:36:55;2.20;;;0.80;;
48993;SDS011;34804;49.214;12.276;2023-04-01T03:39:22;2.08;;;0.70;;
48993;SDS011;34804;49.214;12.276;2023-04-01T03:41:49;3.88;;;0.88;;
48993;SDS011;34804;49.214;12.276;2023-04-01T03:44:16;4.05;;;0.70;;
48993;SDS011;34804;49.214;12.276;2023-04-01T03:46:43;2.85;;;0.73;;
48993;SDS011;34804;49.214;12.276;2023-04-01T03:49:10;5.13;;;0.90;;
48993;SDS011;34804;49.214;12.276;2023-04-01T03:51:41;1.77;;;0.60;;
48993;SDS011;34804;49.214;12.276;2023-04-01T03:54:09;1.55;;;0.50;;
48993;SDS011;34804;49.214;12.276;2023-04-01T03:56:37;2.75;;;0.70;;
48993;SDS011;34804;49.214;12.276;2023-04-01T03:59:05;4.32;;;0.90;;
48993;SDS011;34804;49.214;12.276;2023-04-01T04:01:33;2.50;;;0.95;;
48993;SDS011;34804;49.214;12.276;2023-04-01T04:04:00;2.03;;;0.50;;
48993;SDS011;34804;49.214;12.276;2023-04-01T04:06:27;3.05;;;0.50;;
48993;SDS011;34804;49.214;12.276;2023-04-01T04:08:54;2.22;;;0.60;;
48993;SDS011;34804;49.214;12.276;2023-04-01T04:11:21;2.83;;;0.70;;
48993;SDS011;34804;49.214;12.276;2023-04-01T04:13:48;5.38;;;0.98;;
48993;SDS011;34804;49.214;12.276;2023-04-01T04:16:16;4.78;;;0.90;;
48993;SDS011;34804;49.214;12.276;2023-04-01T04:18:43;2.53;;;0.70;;
48993;SDS011;34804;49.214;12.276;2023-04-01T04:21:14;3.08;;;0.77;;
48993;SDS011;34804;49.214;12.276;2023-04-01T04:23:41;2.85;;;0.75;;
48993;SDS011;34804;49.214;12.276;2023-04-01T04:26:10;3.30;;;0.90;;
48993;SDS011;34804;49.214;12.276;2023-04-01T04:28:38;2.50;;;0.70;;
48993;SDS011;34804;49.214;12.276;2023-04-01T04:31:06;3.75;;;0.98;;
48993;SDS011;34804;49.214;12.276;2023-04-01T04:33:34;4.72;;;1.05;;
48993;SDS011;34804;49.214;12.276;2023-04-01T04:36:01;4.80;;;0.88;;
48993;SDS011;34804;49.214;12.276;2023-04-01T04:38:29;4.38;;;0.85;;
48993;SDS011;34804;49.214;12.276;2023-04-01T04:40:56;1.65;;;0.68;;
48993;SDS011;34804;49.214;12.276;2023-04-01T04:43:23;2.80;;;0.70;;
48993;SDS011;34804;49.214;12.276;2023-04-01T04:45:50;2.67;;;0.77;;
48993;SDS011;34804;49.214;12.276;2023-04-01T04:48:17;3.83;;;0.80;;
48993;SDS011;34804;49.214;12.276;2023-04-01T04:50:49;3.45;;;1.08;;
48993;SDS011;34804;49.214;12.276;2023-04-01T04:53:17;4.78;;;0.88;;
48993;SDS011;34804;49.214;12.276;2023-04-01T04:55:45;2.30;;;0.75;;
48993;SDS011;34804;49.214;12.276;2023-04-01T04:58:13;4.43;;;0.90;;
48993;SDS011;34804;49.214;12.276;2023-04-01T05:00:41;2.80;;;0.95;;
48993;SDS011;34804;49.214;12.276;2023-04-01T05:03:09;3.17;;;0.93;;
48993;SDS011;34804;49.214;12.276;2023-04-01T05:05:36;2.53;;;0.80;;
48993;SDS011;34804;49.214;12.276;2023-04-01T05:08:04;2.67;;;0.75;;
48993;SDS011;34804;49.214;12.276;2023-04-01T05:10:31;3.47;;;0.70;;
48993;SDS011;34804;49.214;12.276;2023-04-01T05:12:58;1.95;;;0.65;;
48993;SDS011;34804;49.214;12.276;2023-04-01T05:15:24;1.27;;;0.50;;
48993;SDS011;34804;49.214;12.276;2023-04-01T05:17:51;1.95;;;0.70;;
48993;SDS011;34804;49.214;12.276;2023-04-01T05:20:18;1.30;;;0.60;;
48993;SDS011;34804;49.214;12.276;2023-04-01T05:22:45;2.90;;;0.68;;
48993;SDS011;34804;49.214;12.276;2023-04-01T05:25:12;1.65;;;0.60;;
48993;SDS011;34804;49.214;12.276;2023-04-01T05:27:38;4.28;;;0.60;;
48993;SDS011;34804;49.214;12.276;2023-04-01T05:30:06;1.67;;;0.52;;
48993;SDS011;34804;49.214;12.276;2023-04-01T05:32:33;2.85;;;0.65;;
48993;SDS011;34804;49.214;12.276;2023-04-01T05:35:00;2.30;;;0.50;;
48993;SDS011;34804;49.214;12.276;2023-04-01T05:37:27;2.92;;;0.68;;
48993;SDS011;34804;49.214;12.276;2023-04-01T05:39:54;4.13;;;0.88;;
48993;SDS011;34804;49.214;12.276;2023-04-01T05:42:21;5.53;;;1.10;;
48993;SDS011;34804;49.214;12.276;2023-04-01T05:44:48;2.05;;;0.60;;
48993;SDS011;34804;49.214;12.276;2023-04-01T05:47:15;2.65;;;0.70;;
48993;SDS011;34804;49.214;12.276;2023-04-01T05:49:41;3.08;;;0.70;;
48993;SDS011;34804;49.214;12.276;2023-04-01T05:52:08;2.25;;;0.57;;
48993;SDS011;34804;49.214;12.276;2023-04-01T05:54:35;5.88;;;0.77;;
48993;SDS011;34804;49.214;12.276;2023-04-01T05:57:02;3.30;;;0.50;;
48993;SDS011;34804;49.214;12.276;2023-04-01T05:59:29;2.65;;;0.60;;
48993;SDS011;34804;49.214;12.276;2023-04-01T06:01:57;2.47;;;0.73;;
48993;SDS011;34804;49.214;12.276;2023-04-01T06:04:26;3.08;;;0.68;;
48993;SDS011;34804;49.214;12.276;2023-04-01T06:09:26;2.45;;;0.65;;
48993;SDS011;34804;49.214;12.276;2023-04-01T06:26:02;1.85;;;0.57;;
48993;SDS011;34804;49.214;12.276;2023-04-01T06:37:05;4.22;;;0.60;;
48993;SDS011;34804;49.214;12.276;2023-04-01T06:39:48;1.15;;;0.38;;
48993;SDS011;34804;49.214;12.276;2023-04-01T06:42:44;5.03;;;0.60;;
48993;SDS011;34804;49.214;12.276;2023-04-01T06:51:11;3.90;;;0.60;;
48993;SDS011;34804;49.214;12.276;2023-04-01T06:56:28;2.03;;;0.60;;
48993;SDS011;34804;49.214;12.276;2023-04-01T06:59:00;1.33;;;0.43;;
48993;SDS011;34804;49.214;12.276;2023-04-01T07:01:49;0.98;;;0.40;;
48993;SDS011;34804;49.214;12.276;2023-04-01T07:06:53;2.20;;;0.63;;
48993;SDS011;34804;49.214;12.276;2023-04-01T07:09:27;1.23;;;0.30;;
48993;SDS011;34804;49.214;12.276;2023-04-01T07:12:00;2.22;;;0.50;;
48993;SDS011;34804;49.214;12.276;2023-04-01T07:14:37;2.13;;;0.45;;
48993;SDS011;34804;49.214;12.276;2023-04-01T07:17:23;1.17;;;0.30;;
48993;SDS011;34804;49.214;12.276;2023-04-01T07:25:11;1.45;;;0.40;;
48993;SDS011;34804;49.214;12.276;2023-04-01T07:27:44;1.45;;;0.30;;
48993;SDS011;34804;49.214;12.276;2023-04-01T07:30:19;3.45;;;0.70;;
48993;SDS011;34804;49.214;12.276;2023-04-01T07:32:47;2.22;;;0.35;;
48993;SDS011;34804;49.214;12.276;2023-04-01T07:39:12;0.68;;;0.30;;
48993;SDS011;34804;49.214;12.276;2023-04-01T07:43:59;0.95;;;0.30;;
48993;SDS011;34804;49.214;12.276;2023-04-01T07:49:25;2.30;;;0.40;;
48993;SDS011;34804;49.214;12.276;2023-04-01T07:52:06;0.70;;;0.22;;
48993;SDS011;34804;49.214;12.276;2023-04-01T07:54:57;1.08;;;0.30;;
48993;SDS011;34804;49.214;12.276;2023-04-01T08:00:22;0.35;;;0.20;;
48993;SDS011;34804;49.214;12.276;2023-04-01T08:05:45;0.22;;;0.20;;
48993;SDS011;34804;49.214;12.276;2023-04-01T08:08:36;1.23;;;0.40;;
48993;SDS011;34804;49.214;12.276;2023-04-01T08:14:39;2.67;;;0.40;;
48993;SDS011;34804;49.214;12.276;2023-04-01T08:17:04;0.30;;;0.30;;
48993;SDS011;34804;49.214;12.276;2023-04-01T08:22:57;1.95;;;0.60;;
48993;SDS011;34804;49.214;12.276;2023-04-01T08:25:42;2.10;;;0.52;;
48993;SDS011;34804;49.214;12.276;2023-04-01T08:28:24;4.15;;;0.75;;
48993;SDS011;34804;49.214;12.276;2023-04-01T08:33:36;1.65;;;0.40;;
48993;SDS011;34804;49.214;12.276;2023-04-01T08:36:06;0.95;;;0.30;;
48993;SDS011;34804;49.214;12.276;2023-04-01T08:47:24;1.70;;;0.45;;
48993;SDS011;34804;49.214;12.276;2023-04-01T08:50:04;1.75;;;0.35;;
48993;SDS011;34804;49.214;12.276;2023-04-01T08:52:57;1.77;;;0.50;;
48993;SDS011;34804;49.214;12.276;2023-04-01T08:55:40;0.95;;;0.40;;
48993;SDS011;34804;49.214;12.276;2023-04-01T09:09:24;1.27;;;0.40;;
48993;SDS011;34804;49.214;12.276;2023-04-01T09:17:44;0.98;;;0.40;;
48993;SDS011;34804;49.214;12.276;2023-04-01T09:20:27;1.35;;;0.38;;
48993;SDS011;34804;49.214;12.276;2023-04-01T09:28:37;0.65;;;0.30;;
48993;SDS011;34804;49.214;12.276;2023-04-01T09:31:33;0.73;;;0.32;;
48993;SDS011;34804;49.214;12.276;2023-04-01T09:37:03;1.23;;;0.30;;
48993;SDS011;34804;49.214;12.276;2023-04-01T09:39:37;3.47;;;0.63;;
48993;SDS011;34804;49.214;12.276;2023-04-01T09:45:18;1.63;;;0.43;;
48993;SDS011;34804;49.214;12.276;2023-04-01T09:50:49;0.80;;;0.47;;
48993;SDS011;34804;49.214;12.276;2023-04-01T09:56:39;1.38;;;0.40;;
48993;SDS011;34804;49.214;12.276;2023-04-01T10:05:27;1.02;;;0.40;;
48993;SDS011;34804;49.214;12.276;2023-04-01T10:08:12;1.55;;;0.52;;
48993;SDS011;34804;49.214;12.276;2023-04-01T10:13:30;0.88;;;0.30;;
48993;SDS011;34804;49.214;12.276;2023-04-01T10:21:29;2.40;;;0.47;;
48993;SDS011;34804;49.214;12.276;2023-04-01T10:24:18;1.80;;;0.60;;
48993;SDS011;34804;49.214;12.276;2023-04-01T10:32:49;1.48;;;0.57;;
48993;SDS011;34804;49.214;12.276;2023-04-01T10:35:58;1.70;;;0.35;;
48993;SDS011;34804;49.214;12.276;2023-04-01T10:48:00;3.58;;;0.40;;
48993;SDS011;34804;49.214;12.276;2023-04-01T10:53:49;1.15;;;0.50;;
48993;SDS011;34804;49.214;12.276;2023-04-01T11:07:51;1.38;;;0.20;;
48993;SDS011;34804;49.214;12.276;2023-04-01T11:16:50;2.47;;;0.57;;
48993;SDS011;34804;49.214;12.276;2023-04-01T11:19:53;1.55;;;0.43;;
48993;SDS011;34804;49.214;12.276;2023-04-01T11:22:52;1.20;;;0.30;;
48993;SDS011;34804;49.214;12.276;2023-04-01T11:25:50;1.58;;;0.38;;
48993;SDS011;34804;49.214;12.276;2023-04-01T11:33:55;2.33;;;0.40;;
48993;SDS011;34804;49.214;12.276;2023-04-01T11:39:29;2.28;;;0.30;;
48993;SDS011;34804;49.214;12.276;2023-04-01T11:42:22;0.93;;;0.30;;
48993;SDS011;34804;49.214;12.276;2023-04-01T11:45:32;0.85;;;0.28;;
48993;SDS011;34804;49.214;12.276;2023-04-01T12:04:50;1.30;;;0.40;;
48993;SDS011;34804;49.214;12.276;2023-04-01T12:07:43;1.40;;;0.30;;
48993;SDS011;34804;49.214;12.276;2023-04-01T12:10:35;1.63;;;0.25;;
48993;SDS011;34804;49.214;12.276;2023-04-01T12:13:14;0.40;;;0.20;;
48993;SDS011;34804;49.214;12.276;2023-04-01T12:18:42;0.30;;;0.30;;
48993;SDS011;34804;49.214;12.276;2023-04-01T12:34:53;2.13;;;0.43;;
48993;SDS011;34804;49.214;12.276;2023-04-01T12:37:56;0.73;;;0.30;;
48993;SDS011;34804;49.214;12.276;2023-04-01T12:43:47;1.73;;;0.32;;
48993;SDS011;34804;49.214;12.276;2023-04-01T12:46:46;0.82;;;0.40;;
48993;SDS011;34804;49.214;12.276;2023-04-01T12:49:50;1.02;;;0.30;;
48993;SDS011;34804;49.214;12.276;2023-04-01T12:58:03;0.93;;;0.38;;
48993;SDS011;34804;49.214;12.276;2023-04-01T13:12:15;0.40;;;0.30;;
48993;SDS011;34804;49.214;12.276;2023-04-01T13:14:57;0.32;;;0.28;;
48993;SDS011;34804;49.214;12.276;2023-04-01T13:17:48;1.63;;;0.35;;
48993;SDS011;34804;49.214;12.276;2023-04-01T13:20:34;1.13;;;0.20;;
48993;SDS011;34804;49.214;12.276;2023-04-01T13:23:34;1.30;;;0.30;;
48993;SDS011;34804;49.214;12.276;2023-04-01T13:26:18;2.97;;;0.50;;
48993;SDS011;34804;49.214;12.276;2023-04-01T13:31:52;0.50;;;0.30;;
48993;SDS011;34804;49.214;12.276;2023-04-01T13:34:39;0.82;;;0.30;;
48993;SDS011;34804;49.214;12.276;2023-04-01T13:43:08;0.63;;;0.30;;
48993;SDS011;34804;49.214;12.276;2023-04-01T13:45:45;2.65;;;0.40;;
48993;SDS011;34804;49.214;12.276;2023-04-01T13:48:50;0.43;;;0.30;;
48993;SDS011;34804;49.214;12.276;2023-04-01T13:57:07;1.02;;;0.40;;
48993;SDS011;34804;49.214;12.276;2023-04-01T14:03:26;1.23;;;0.40;;
48993;SDS011;34804;49.214;12.276;2023-04-01T14:06:17;0.45;;;0.20;;
48993;SDS011;34804;49.214;12.276;2023-04-01T14:09:03;0.63;;;0.30;;
48993;SDS011;34804;49.214;12.276;2023-04-01T14:11:41;0.47;;;0.30;;
48993;SDS011;34804;49.214;12.276;2023-04-01T14:20:25;0.90;;;0.32;;
48993;SDS011;34804;49.214;12.276;2023-04-01T14:31:38;1.17;;;0.50;;
48993;SDS011;34804;49.214;12.276;2023-04-01T14:37:14;1.13;;;0.40;;
48993;SDS011;34804;49.214;12.276;2023-04-01T14:48:25;0.70;;;0.40;;
48993;SDS011;34804;49.214;12.276;2023-04-01T14:56:47;1.55;;;0.60;;
48993;SDS011;34804;49.214;12.276;2023-04-01T14:59:26;0.93;;;0.57;;
48993;SDS011;34804;49.214;12.276;2023-04-01T15:02:02;1.13;;;0.40;;
48993;SDS011;34804;49.214;12.276;2023-04-01T15:04:50;0.90;;;0.40;;
48993;SDS011;34804;49.214;12.276;2023-04-01T15:07:33;0.50;;;0.30;;
48993;SDS011;34804;49.214;12.276;2023-04-01T15:33:06;0.93;;;0.50;;
48993;SDS011;34804;49.214;12.276;2023-04-01T15:41:16;0.82;;;0.47;;
48993;SDS011;34804;49.214;12.276;2023-04-01T15:44:00;1.73;;;0.40;;
48993;SDS011;34804;49.214;12.276;2023-04-01T15:52:15;0.70;;;0.32;;
48993;SDS011;34804;49.214;12.276;2023-04-01T15:58:06;0.40;;;0.30;;
48993;SDS011;34804;49.214;12.276;2023-04-01T16:01:14;1.20;;;0.50;;
48993;SDS011;34804;49.214;12.276;2023-04-01T16:04:07;0.68;;;0.50;;
48993;SDS011;34804;49.214;12.276;2023-04-01T16:06:53;0.75;;;0.50;;
48993;SDS011;34804;49.214;12.276;2023-04-01T16:09:31;0.85;;;0.40;;
48993;SDS011;34804;49.214;12.276;2023-04-01T16:12:18;1.05;;;0.35;;
48993;SDS011;34804;49.214;12.276;2023-04-01T16:20:39;1.63;;;0.65;;
48993;SDS011;34804;49.214;12.276;2023-04-01T16:23:22;0.80;;;0.45;;
48993;SDS011;34804;49.214;12.276;2023-04-01T16:26:28;0.75;;;0.40;;
48993;SDS011;34804;49.214;12.276;2023-04-01T16:29:12;0.90;;;0.50;;
48993;SDS011;34804;49.214;12.276;2023-04-01T16:34:28;2.72;;;0.68;;
48993;SDS011;34804;49.214;12.276;2023-04-01T16:37:11;0.70;;;0.47;;
48993;SDS011;34804;49.214;12.276;2023-04-01T16:42:43;0.85;;;0.38;;
48993;SDS011;34804;49.214;12.276;2023-04-01T16:47:56;1.35;;;0.40;;
48993;SDS011;34804;49.214;12.276;2023-04-01T16:55:47;1.00;;;0.50;;
48993;SDS011;34804;49.214;12.276;2023-04-01T16:58:35;1.50;;;0.50;;
48993;SDS011;34804;49.214;12.276;2023-04-01T17:01:29;0.70;;;0.50;;
48993;SDS011;34804;49.214;12.276;2023-04-01T17:04:08;0.95;;;0.50;;
48993;SDS011;34804;49.214;12.276;2023-04-01T17:06:54;1.25;;;0.57;;
48993;SDS011;34804;49.214;12.276;2023-04-01T17:12:25;1.27;;;0.60;;
48993;SDS011;34804;49.214;12.276;2023-04-01T17:23:00;1.60;;;0.68;;
48993;SDS011;34804;49.214;12.276;2023-04-01T17:25:38;1.95;;;0.50;;
48993;SDS011;34804;49.214;12.276;2023-04-01T17:28:13;1.23;;;0.50;;
48993;SDS011;34804;49.214;12.276;2023-04-01T17:31:15;1.58;;;0.60;;
48993;SDS011;34804;49.214;12.276;2023-04-01T17:42:16;0.80;;;0.50;;
48993;SDS011;34804;49.214;12.276;2023-04-01T17:53:23;1.10;;;0.63;;
48993;SDS011;34804;49.214;12.276;2023-04-01T17:56:22;0.38;;;0.38;;
48993;SDS011;34804;49.214;12.276;2023-04-01T18:07:38;0.70;;;0.45;;
48993;SDS011;34804;49.214;12.276;2023-04-01T18:13:10;2.05;;;0.50;;
48993;SDS011;34804;49.214;12.276;2023-04-01T18:23:53;1.75;;;0.55;;
48993;SDS011;34804;49.214;12.276;2023-04-01T18:26:29;2.30;;;0.60;;
48993;SDS011;34804;49.214;12.276;2023-04-01T18:31:49;0.85;;;0.43;;
48993;SDS011;34804;49.214;12.276;2023-04-01T18:40:12;0.80;;;0.30;;
48993;SDS011;34804;49.214;12.276;2023-04-01T18:45:34;0.38;;;0.28;;
48993;SDS011;34804;49.214;12.276;2023-04-01T18:51:13;0.98;;;0.30;;
48993;SDS011;34804;49.214;12.276;2023-04-01T18:53:45;2.40;;;0.32;;
48993;SDS011;34804;49.214;12.276;2023-04-01T18:56:26;1.98;;;0.43;;
48993;SDS011;34804;49.214;12.276;2023-04-01T18:59:05;1.08;;;0.43;;
48993;SDS011;34804;49.214;12.276;2023-04-01T19:04:33;0.45;;;0.30;;
48993;SDS011;34804;49.214;12.276;2023-04-01T19:12:51;1.17;;;0.47;;
48993;SDS011;34804;49.214;12.276;2023-04-01T19:15:29;1.80;;;0.50;;
48993;SDS011;34804;49.214;12.276;2023-04-01T19:23:46;0.80;;;0.30;;
48993;SDS011;34804;49.214;12.276;2023-04-01T19:29:26;1.17;;;0.30;;
48993;SDS011;34804;49.214;12.276;2023-04-01T19:38:15;3.85;;;0.40;;
48993;SDS011;34804;49.214;12.276;2023-04-01T19:46:10;2.45;;;0.60;;
48993;SDS011;34804;49.214;12.276;2023-04-01T19:48:57;1.48;;;0.50;;
48993;SDS011;34804;49.214;12.276;2023-04-01T19:56:46;1.95;;;0.60;;
48993;SDS011;34804;49.214;12.276;2023-04-01T19:59:38;0.93;;;0.47;;
48993;SDS011;34804;49.214;12.276;2023-04-01T20:04:35;1.58;;;0.52;;
48993;SDS011;34804;49.214;12.276;2023-04-01T20:15:33;0.50;;;0.40;;
48993;SDS011;34804;49.214;12.276;2023-04-01T20:18:04;1.35;;;0.50;;
48993;SDS011;34804;49.214;12.276;2023-04-01T20:20:40;1.02;;;0.40;;
48993;SDS011;34804;49.214;12.276;2023-04-01T20:23:33;1.67;;;0.60;;
48993;SDS011;34804;49.214;12.276;2023-04-01T20:26:10;3.05;;;1.02;;
48993;SDS011;34804;49.214;12.276;2023-04-01T20:31:43;1.05;;;0.35;;
48993;SDS011;34804;49.214;12.276;2023-04-01T20:37:48;1.00;;;0.57;;
48993;SDS011;34804;49.214;12.276;2023-04-01T20:40:40;2.17;;;0.60;;
48993;SDS011;34804;49.214;12.276;2023-04-01T20:43:22;1.77;;;0.65;;
48993;SDS011;34804;49.214;12.276;2023-04-01T20:45:58;2.17;;;0.70;;
48993;SDS011;34804;49.214;12.276;2023-04-01T20:51:01;0.50;;;0.43;;
48993;SDS011;34804;49.214;12.276;2023-04-01T20:53:35;1.10;;;0.45;;
48993;SDS011;34804;49.214;12.276;2023-04-01T20:56:14;1.08;;;0.40;;
48993;SDS011;34804;49.214;12.276;2023-04-01T21:02:13;1.40;;;0.52;;
48993;SDS011;34804;49.214;12.276;2023-04-01T21:13:10;3.30;;;0.60;;
48993;SDS011;34804;49.214;12.276;2023-04-01T21:15:42;1.67;;;0.70;;
48993;SDS011;34804;49.214;12.276;2023-04-01T21:27:07;1.17;;;0.50;;
48993;SDS011;34804;49.214;12.276;2023-04-01T21:29:50;1.27;;;0.50;;
48993;SDS011;34804;49.214;12.276;2023-04-01T21:35:10;1.40;;;0.50;;
48993;SDS011;34804;49.214;12.276;2023-04-01T21:38:15;1.40;;;0.60;;
48993;SDS011;34804;49.214;12.276;2023-04-01T21:40:59;3.58;;;0.80;;
48993;SDS011;34804;49.214;12.276;2023-04-01T21:46:34;1.80;;;0.70;;
48993;SDS011;34804;49.214;12.276;2023-04-01T22:03:20;2.25;;;0.75;;
48993;SDS011;34804;49.214;12.276;2023-04-01T22:06:00;2.30;;;0.60;;
48993;SDS011;34804;49.214;12.276;2023-04-01T22:08:37;2.03;;;0.50;;
48993;SDS011;34804;49.214;12.276;2023-04-01T22:16:48;2.42;;;0.70;;
48993;SDS011;34804;49.214;12.276;2023-04-01T22:32:50;1.73;;;0.80;;
48993;SDS011;34804;49.214;12.276;2023-04-01T22:35:29;1.73;;;0.50;;
48993;SDS011;34804;49.214;12.276;2023-04-01T22:40:52;3.00;;;0.60;;
48993;SDS011;34804;49.214;12.276;2023-04-01T22:43:41;3.60;;;0.57;;
48993;SDS011;34804;49.214;12.276;2023-04-01T22:49:21;1.30;;;0.57;;
48993;SDS011;34804;49.214;12.276;2023-04-01T22:51:55;2.50;;;0.68;;
48993;SDS011;34804;49.214;12.276;2023-04-01T22:54:41;1.58;;;0.60;;
48993;SDS011;34804;49.214;12.276;2023-04-01T22:57:14;2.55;;;0.60;;
48993;SDS011;34804;49.214;12.276;2023-04-01T23:00:12;2.22;;;0.80;;
48993;SDS011;34804;49.214;12.276;2023-04-01T23:05:33;1.98;;;0.70;;
48993;SDS011;34804;49.214;12.276;2023-04-01T23:11:02;0.80;;;0.60;;
48993;SDS011;34804;49.214;12.276;2023-04-01T23:13:34;4.63;;;0.95;;
48993;SDS011;34804;49.214;12.276;2023-04-01T23:16:07;2.90;;;0.55;;
48993;SDS011;34804;49.214;12.276;2023-04-01T23:18:36;2.15;;;0.40;;
48993;SDS011;34804;49.214;12.276;2023-04-01T23:24:25;1.55;;;0.52;;
48993;SDS011;34804;49.214;12.276;2023-04-01T23:27:11;1.63;;;0.63;;
48993;SDS011;34804;49.214;12.276;2023-04-01T23:29:47;1.27;;;0.50;;
48993;SDS011;34804;49.214;12.276;2023-04-01T23:32:23;2.75;;;0.52;;
48993;SDS011;34804;49.214;12.276;2023-04-01T23:34:53;2.28;;;0.70;;
48993;SDS011;34804;49.214;12.276;2023-04-01T23:37:23;2.10;;;0.80;;
48993;SDS011;34804;49.214;12.276;2023-04-01T23:39:51;2.35;;;0.80;;
48993;SDS011;34804;49.214;12.276;2023-04-01T23:42:32;3.28;;;0.70;;
48993;SDS011;34804;49.214;12.276;2023-04-01T23:45:05;4.57;;;0.63;;
48993;SDS011;34804;49.214;12.276;2023-04-01T23:47:40;2.63;;;0.80;;
48993;SDS011;34804;49.214;12.276;2023-04-01T23:50:14;1.73;;;0.75;;
48993;SDS011;34804;49.214;12.276;2023-04-01T23:52:51;2.67;;;0.80;;
48993;SDS011;34804;49.214;12.276;2023-04-01T23:55:24;4.47;;;0.90;;
